Guston, Kentucky
Current Conditions -  °F | °C
As of 5:58 AM on Friday 28 Nov 2014 (Local Time) from KFTK Reporting Station
Overcast Overcast  
Wind Chill: 23°   Ceiling: 8500
Heat Index: 23°   Visibility: 10mi
Dew Point: 19°   Wind: 2mph
Humidity: 86%   Direction: 130°SE
Pressure: 30.4"   Gusts: NA
Location:  37.89°N, 86.22°W
Report Text: KFTK 281058Z AUTO 13002KT 10SM BKN085 OVC140 M05/M07 A3040 RMK AO2 SLP307 T10521072
Loading
Personal Weather Stations






























Interactive Weather Map New forecast layout! Learn more

10-Day Weather Forecast

Advertisements
Track Severe Weather on mobile